sensor_id;sensor_type;location;lat;lon;timestamp;pressure;altitude;pressure_sealevel;temperature;humidity
72262;BME280;60173;52.112;8.648;2023-08-30T00:01:28;99888.88;;;12.85;100.00
72262;BME280;60173;52.112;8.648;2023-08-30T00:03:54;99888.28;;;12.71;100.00
72262;BME280;60173;52.112;8.648;2023-08-30T00:06:20;99886.59;;;12.87;100.00
72262;BME280;60173;52.112;8.648;2023-08-30T00:08:47;99879.47;;;13.03;100.00
72262;BME280;60173;52.112;8.648;2023-08-30T00:11:14;99882.13;;;12.91;100.00
72262;BME280;60173;52.112;8.648;2023-08-30T00:13:40;99892.34;;;12.94;100.00
72262;BME280;60173;52.112;8.648;2023-08-30T00:16:06;99891.31;;;13.07;100.00
72262;BME280;60173;52.112;8.648;2023-08-30T00:18:33;99884.09;;;13.11;100.00
72262;BME280;60173;52.112;8.648;2023-08-30T00:20:59;99884.19;;;12.94;99.81
72262;BME280;60173;52.112;8.648;2023-08-30T00:23:26;99884.84;;;12.91;100.00
72262;BME280;60173;52.112;8.648;2023-08-30T00:25:52;99888.22;;;12.88;100.00
72262;BME280;60173;52.112;8.648;2023-08-30T00:28:18;99886.44;;;12.92;99.92
72262;BME280;60173;52.112;8.648;2023-08-30T00:30:45;99879.88;;;12.93;99.45
72262;BME280;60173;52.112;8.648;2023-08-30T00:33:11;99881.31;;;12.91;99.48
72262;BME280;60173;52.112;8.648;2023-08-30T00:35:38;99874.50;;;12.76;99.67
72262;BME280;60173;52.112;8.648;2023-08-30T00:38:04;99876.41;;;12.66;100.00
72262;BME280;60173;52.112;8.648;2023-08-30T00:40:38;99866.38;;;12.58;100.00
72262;BME280;60173;52.112;8.648;2023-08-30T00:43:05;99864.91;;;12.61;100.00
72262;BME280;60173;52.112;8.648;2023-08-30T00:45:32;99871.63;;;12.63;100.00
72262;BME280;60173;52.112;8.648;2023-08-30T00:47:59;99874.56;;;12.58;100.00
72262;BME280;60173;52.112;8.648;2023-08-30T00:50:25;99870.03;;;12.62;100.00
72262;BME280;60173;52.112;8.648;2023-08-30T00:52:52;99866.34;;;12.67;100.00
72262;BME280;60173;52.112;8.648;2023-08-30T00:55:18;99868.72;;;12.69;100.00
72262;BME280;60173;52.112;8.648;2023-08-30T00:57:45;99867.28;;;12.71;100.00
72262;BME280;60173;52.112;8.648;2023-08-30T01:00:14;99864.03;;;12.78;100.00
72262;BME280;60173;52.112;8.648;2023-08-30T01:02:40;99865.19;;;12.77;100.00
72262;BME280;60173;52.112;8.648;2023-08-30T01:05:08;99868.38;;;12.79;100.00
72262;BME280;60173;52.112;8.648;2023-08-30T01:07:35;99849.09;;;12.84;100.00
72262;BME280;60173;52.112;8.648;2023-08-30T01:10:01;99861.00;;;12.79;100.00
72262;BME280;60173;52.112;8.648;2023-08-30T01:12:40;99858.59;;;12.78;100.00
72262;BME280;60173;52.112;8.648;2023-08-30T01:15:18;99850.41;;;12.78;100.00
72262;BME280;60173;52.112;8.648;2023-08-30T01:17:47;99855.78;;;12.95;99.91
72262;BME280;60173;52.112;8.648;2023-08-30T01:20:15;99847.66;;;12.86;99.78
72262;BME280;60173;52.112;8.648;2023-08-30T01:28:11;99845.47;;;12.71;100.00
72262;BME280;60173;52.112;8.648;2023-08-30T01:30:40;99842.16;;;12.65;100.00
72262;BME280;60173;52.112;8.648;2023-08-30T01:33:08;99835.25;;;12.68;100.00
72262;BME280;60173;52.112;8.648;2023-08-30T01:35:35;99832.84;;;12.66;100.00
72262;BME280;60173;52.112;8.648;2023-08-30T01:38:06;99843.06;;;12.70;100.00
72262;BME280;60173;52.112;8.648;2023-08-30T01:40:39;99842.72;;;12.80;100.00
72262;BME280;60173;52.112;8.648;2023-08-30T01:43:07;99852.00;;;12.87;100.00
72262;BME280;60173;52.112;8.648;2023-08-30T01:45:40;99844.56;;;12.97;99.87
72262;BME280;60173;52.112;8.648;2023-08-30T01:48:10;99856.25;;;12.97;99.37
72262;BME280;60173;52.112;8.648;2023-08-30T01:50:41;99842.72;;;13.09;99.25
72262;BME280;60173;52.112;8.648;2023-08-30T01:53:10;99846.66;;;13.21;98.46
72262;BME280;60173;52.112;8.648;2023-08-30T01:55:38;99842.81;;;13.22;97.98
72262;BME280;60173;52.112;8.648;2023-08-30T01:58:06;99849.53;;;13.24;97.70
72262;BME280;60173;52.112;8.648;2023-08-30T02:00:37;99845.88;;;13.20;97.74
72262;BME280;60173;52.112;8.648;2023-08-30T02:03:10;99842.81;;;13.22;97.63
72262;BME280;60173;52.112;8.648;2023-08-30T02:05:42;99843.25;;;13.32;97.30
72262;BME280;60173;52.112;8.648;2023-08-30T02:08:15;99844.03;;;13.33;96.97
72262;BME280;60173;52.112;8.648;2023-08-30T02:10:51;99850.16;;;13.30;96.88
72262;BME280;60173;52.112;8.648;2023-08-30T02:13:24;99843.25;;;13.32;96.99
72262;BME280;60173;52.112;8.648;2023-08-30T02:15:52;99845.00;;;13.37;96.61
72262;BME280;60173;52.112;8.648;2023-08-30T02:18:21;99835.81;;;13.42;96.48
72262;BME280;60173;52.112;8.648;2023-08-30T02:20:48;99841.94;;;13.39;96.32
72262;BME280;60173;52.112;8.648;2023-08-30T02:23:14;99839.13;;;13.26;96.79
72262;BME280;60173;52.112;8.648;2023-08-30T02:25:40;99830.31;;;13.21;97.11
72262;BME280;60173;52.112;8.648;2023-08-30T02:28:07;99832.22;;;13.29;97.23
72262;BME280;60173;52.112;8.648;2023-08-30T02:30:34;99835.69;;;13.38;96.79
72262;BME280;60173;52.112;8.648;2023-08-30T02:33:00;99832.75;;;13.43;96.13
72262;BME280;60173;52.112;8.648;2023-08-30T02:35:27;99841.06;;;13.47;95.83
72262;BME280;60173;52.112;8.648;2023-08-30T02:37:53;99844.16;;;13.45;95.70
72262;BME280;60173;52.112;8.648;2023-08-30T02:40:19;99843.00;;;13.46;95.62
72262;BME280;60173;52.112;8.648;2023-08-30T02:42:46;99840.66;;;13.36;95.76
72262;BME280;60173;52.112;8.648;2023-08-30T02:45:12;99835.50;;;13.43;95.53
72262;BME280;60173;52.112;8.648;2023-08-30T02:47:39;99835.88;;;13.33;95.35
72262;BME280;60173;52.112;8.648;2023-08-30T02:50:05;99834.47;;;13.27;95.71
72262;BME280;60173;52.112;8.648;2023-08-30T02:52:32;99827.69;;;13.33;95.85
72262;BME280;60173;52.112;8.648;2023-08-30T02:54:58;99815.19;;;13.32;95.62
72262;BME280;60173;52.112;8.648;2023-08-30T02:57:24;99826.66;;;13.17;95.92
72262;BME280;60173;52.112;8.648;2023-08-30T02:59:51;99825.69;;;13.12;96.42
72262;BME280;60173;52.112;8.648;2023-08-30T03:02:17;99818.13;;;13.18;96.33
72262;BME280;60173;52.112;8.648;2023-08-30T03:04:44;99820.44;;;13.07;96.42
72262;BME280;60173;52.112;8.648;2023-08-30T03:07:10;99824.03;;;12.99;96.87
72262;BME280;60173;52.112;8.648;2023-08-30T03:09:36;99826.56;;;13.04;96.71
72262;BME280;60173;52.112;8.648;2023-08-30T03:12:03;99823.69;;;13.01;96.90
72262;BME280;60173;52.112;8.648;2023-08-30T03:14:30;99816.63;;;12.79;97.35
72262;BME280;60173;52.112;8.648;2023-08-30T03:16:56;99815.16;;;12.73;97.90
72262;BME280;60173;52.112;8.648;2023-08-30T03:19:22;99818.38;;;12.75;97.89
72262;BME280;60173;52.112;8.648;2023-08-30T03:21:49;99816.94;;;12.77;97.92
72262;BME280;60173;52.112;8.648;2023-08-30T03:24:15;99823.16;;;12.78;97.89
72262;BME280;60173;52.112;8.648;2023-08-30T03:26:44;99818.84;;;12.77;97.70
72262;BME280;60173;52.112;8.648;2023-08-30T03:29:11;99824.47;;;12.72;97.94
72262;BME280;60173;52.112;8.648;2023-08-30T03:31:37;99821.59;;;12.77;97.92
72262;BME280;60173;52.112;8.648;2023-08-30T03:34:04;99822.75;;;12.67;97.83
72262;BME280;60173;52.112;8.648;2023-08-30T03:36:30;99820.22;;;12.62;98.10
72262;BME280;60173;52.112;8.648;2023-08-30T03:38:56;99819.25;;;12.58;98.35
72262;BME280;60173;52.112;8.648;2023-08-30T03:41:23;99823.63;;;12.50;98.75
72262;BME280;60173;52.112;8.648;2023-08-30T03:43:49;99810.47;;;12.52;99.04
72262;BME280;60173;52.112;8.648;2023-08-30T03:46:16;99809.53;;;12.48;99.16
72262;BME280;60173;52.112;8.648;2023-08-30T03:48:42;99818.81;;;12.47;99.09
72262;BME280;60173;52.112;8.648;2023-08-30T03:51:08;99825.88;;;12.48;98.96
72262;BME280;60173;52.112;8.648;2023-08-30T03:53:35;99817.22;;;12.46;98.87
72262;BME280;60173;52.112;8.648;2023-08-30T03:56:01;99818.19;;;12.50;98.76
72262;BME280;60173;52.112;8.648;2023-08-30T03:58:29;99823.63;;;12.50;98.75
72262;BME280;60173;52.112;8.648;2023-08-30T04:00:56;99820.91;;;12.50;98.59
72262;BME280;60173;52.112;8.648;2023-08-30T04:03:23;99819.28;;;12.49;98.64
72262;BME280;60173;52.112;8.648;2023-08-30T04:05:56;99815.63;;;12.45;98.70
72262;BME280;60173;52.112;8.648;2023-08-30T04:08:23;99815.97;;;12.35;99.41
72262;BME280;60173;52.112;8.648;2023-08-30T04:10:52;99814.84;;;12.36;99.58
72262;BME280;60173;52.112;8.648;2023-08-30T04:13:19;99807.03;;;12.26;100.00
72262;BME280;60173;52.112;8.648;2023-08-30T04:15:45;99810.53;;;12.35;100.00
72262;BME280;60173;52.112;8.648;2023-08-30T04:18:12;99805.56;;;12.37;99.97
72262;BME280;60173;52.112;8.648;2023-08-30T04:20:43;99807.16;;;12.29;99.92
72262;BME280;60173;52.112;8.648;2023-08-30T04:23:10;99806.38;;;12.29;99.97
72262;BME280;60173;52.112;8.648;2023-08-30T04:25:36;99802.19;;;12.40;99.54
72262;BME280;60173;52.112;8.648;2023-08-30T04:28:03;99795.47;;;12.37;99.34
72262;BME280;60173;52.112;8.648;2023-08-30T04:30:30;99787.50;;;12.24;99.76
72262;BME280;60173;52.112;8.648;2023-08-30T04:32:56;99791.81;;;12.25;100.00
72262;BME280;60173;52.112;8.648;2023-08-30T04:35:22;99800.78;;;12.25;99.96
72262;BME280;60173;52.112;8.648;2023-08-30T04:37:49;99792.31;;;12.27;99.78
72262;BME280;60173;52.112;8.648;2023-08-30T04:40:15;99794.19;;;12.35;99.53
72262;BME280;60173;52.112;8.648;2023-08-30T04:42:41;99799.94;;;12.42;99.35
72262;BME280;60173;52.112;8.648;2023-08-30T04:45:08;99799.78;;;12.38;99.16
72262;BME280;60173;52.112;8.648;2023-08-30T04:47:35;99798.19;;;12.37;99.15
72262;BME280;60173;52.112;8.648;2023-08-30T04:50:01;99801.53;;;12.43;99.21
72262;BME280;60173;52.112;8.648;2023-08-30T04:52:28;99800.22;;;12.49;98.89
72262;BME280;60173;52.112;8.648;2023-08-30T04:54:54;99804.06;;;12.48;98.63
72262;BME280;60173;52.112;8.648;2023-08-30T04:57:21;99803.75;;;12.41;98.75
72262;BME280;60173;52.112;8.648;2023-08-30T04:59:48;99797.38;;;12.37;98.72
72262;BME280;60173;52.112;8.648;2023-08-30T05:02:14;99798.22;;;12.29;99.13
72262;BME280;60173;52.112;8.648;2023-08-30T05:04:41;99793.28;;;12.22;99.56
72262;BME280;60173;52.112;8.648;2023-08-30T05:07:08;99791.28;;;12.40;99.40
72262;BME280;60173;52.112;8.648;2023-08-30T05:09:34;99781.34;;;12.44;98.82
72262;BME280;60173;52.112;8.648;2023-08-30T05:12:01;99783.88;;;12.49;98.42
72262;BME280;60173;52.112;8.648;2023-08-30T05:14:28;99793.38;;;12.73;97.56
72262;BME280;60173;52.112;8.648;2023-08-30T05:16:54;99787.72;;;13.07;96.15
72262;BME280;60173;52.112;8.648;2023-08-30T05:19:20;99792.13;;;13.21;95.17
72262;BME280;60173;52.112;8.648;2023-08-30T05:21:47;99788.47;;;13.25;94.81
72262;BME280;60173;52.112;8.648;2023-08-30T05:24:13;99787.00;;;13.28;95.16
72262;BME280;60173;52.112;8.648;2023-08-30T05:26:40;99783.78;;;13.26;95.59
72262;BME280;60173;52.112;8.648;2023-08-30T05:29:06;99782.28;;;13.37;95.41
72262;BME280;60173;52.112;8.648;2023-08-30T05:31:32;99783.03;;;13.59;94.67
72262;BME280;60173;52.112;8.648;2023-08-30T05:33:59;99779.59;;;13.49;94.42
72262;BME280;60173;52.112;8.648;2023-08-30T05:36:25;99781.25;;;13.42;95.33
72262;BME280;60173;52.112;8.648;2023-08-30T05:38:51;99770.94;;;13.47;95.30
72262;BME280;60173;52.112;8.648;2023-08-30T05:41:18;99777.59;;;13.59;94.45
72262;BME280;60173;52.112;8.648;2023-08-30T05:43:44;99775.31;;;13.61;94.11
72262;BME280;60173;52.112;8.648;2023-08-30T05:46:11;99770.69;;;13.73;93.42
72262;BME280;60173;52.112;8.648;2023-08-30T05:48:37;99763.69;;;13.85;92.85
72262;BME280;60173;52.112;8.648;2023-08-30T05:51:03;99763.59;;;13.93;92.36
72262;BME280;60173;52.112;8.648;2023-08-30T05:53:30;99753.19;;;14.08;91.95
72262;BME280;60173;52.112;8.648;2023-08-30T05:58:28;99756.06;;;14.23;91.03
72262;BME280;60173;52.112;8.648;2023-08-30T06:00:55;99760.06;;;14.38;90.24
72262;BME280;60173;52.112;8.648;2023-08-30T06:03:21;99763.59;;;14.39;89.90
72262;BME280;60173;52.112;8.648;2023-08-30T06:05:48;99756.84;;;14.48;89.67
72262;BME280;60173;52.112;8.648;2023-08-30T06:08:15;99753.94;;;14.54;89.17
72262;BME280;60173;52.112;8.648;2023-08-30T06:10:41;99752.66;;;14.39;89.17
72262;BME280;60173;52.112;8.648;2023-08-30T06:13:07;99747.97;;;14.39;89.60
72262;BME280;60173;52.112;8.648;2023-08-30T06:15:35;99745.00;;;14.20;89.91
72262;BME280;60173;52.112;8.648;2023-08-30T06:18:02;99744.22;;;14.19;90.88
72262;BME280;60173;52.112;8.648;2023-08-30T06:20:28;99748.09;;;14.31;90.82
72262;BME280;60173;52.112;8.648;2023-08-30T06:22:57;99743.00;;;14.54;90.33
72262;BME280;60173;52.112;8.648;2023-08-30T06:25:23;99736.50;;;14.71;89.38
72262;BME280;60173;52.112;8.648;2023-08-30T06:27:57;99738.88;;;14.72;88.54
72262;BME280;60173;52.112;8.648;2023-08-30T06:30:25;99735.34;;;14.84;88.16
72262;BME280;60173;52.112;8.648;2023-08-30T06:32:52;99736.50;;;14.83;88.05
72262;BME280;60173;52.112;8.648;2023-08-30T06:35:18;99739.19;;;15.07;87.34
72262;BME280;60173;52.112;8.648;2023-08-30T06:37:44;99735.91;;;15.02;87.32
72262;BME280;60173;52.112;8.648;2023-08-30T06:40:11;99732.91;;;15.07;87.30
72262;BME280;60173;52.112;8.648;2023-08-30T06:42:37;99734.72;;;15.15;86.82
72262;BME280;60173;52.112;8.648;2023-08-30T06:45:04;99726.44;;;15.40;86.03
72262;BME280;60173;52.112;8.648;2023-08-30T06:47:31;99722.50;;;15.53;85.26
72262;BME280;60173;52.112;8.648;2023-08-30T06:49:58;99723.41;;;15.57;84.21
72262;BME280;60173;52.112;8.648;2023-08-30T06:52:25;99713.66;;;15.44;84.74
72262;BME280;60173;52.112;8.648;2023-08-30T06:54:51;99719.34;;;15.51;85.11
72262;BME280;60173;52.112;8.648;2023-08-30T06:57:17;99726.03;;;15.53;84.82
72262;BME280;60173;52.112;8.648;2023-08-30T06:59:44;99719.47;;;15.70;86.96
72262;BME280;60173;52.112;8.648;2023-08-30T07:02:10;99726.19;;;15.73;87.02
72262;BME280;60173;52.112;8.648;2023-08-30T07:04:37;99715.91;;;15.98;85.70
72262;BME280;60173;52.112;8.648;2023-08-30T07:07:03;99719.47;;;16.14;84.80
72262;BME280;60173;52.112;8.648;2023-08-30T07:09:30;99724.56;;;16.16;84.25
72262;BME280;60173;52.112;8.648;2023-08-30T07:11:57;99728.88;;;16.17;84.45
72262;BME280;60173;52.112;8.648;2023-08-30T07:14:24;99730.59;;;16.21;84.01
72262;BME280;60173;52.112;8.648;2023-08-30T07:16:50;99729.16;;;16.27;83.53
72262;BME280;60173;52.112;8.648;2023-08-30T07:19:17;99726.16;;;16.33;83.49
72262;BME280;60173;52.112;8.648;2023-08-30T07:21:43;99725.63;;;16.11;83.59
72262;BME280;60173;52.112;8.648;2023-08-30T07:24:10;99727.31;;;16.00;84.79
72262;BME280;60173;52.112;8.648;2023-08-30T07:26:37;99721.66;;;16.09;84.92
72262;BME280;60173;52.112;8.648;2023-08-30T07:29:03;99720.75;;;16.36;84.76
72262;BME280;60173;52.112;8.648;2023-08-30T07:31:31;99714.13;;;16.53;83.58
72262;BME280;60173;52.112;8.648;2023-08-30T07:33:58;99715.88;;;16.61;83.45
72262;BME280;60173;52.112;8.648;2023-08-30T07:36:24;99715.09;;;16.61;82.71
72262;BME280;60173;52.112;8.648;2023-08-30T07:39:10;99710.63;;;16.72;82.41
72262;BME280;60173;52.112;8.648;2023-08-30T07:41:37;99712.06;;;16.82;81.90
72262;BME280;60173;52.112;8.648;2023-08-30T07:44:03;99706.88;;;16.96;81.30
72262;BME280;60173;52.112;8.648;2023-08-30T07:46:30;99707.34;;;16.98;81.25
72262;BME280;60173;52.112;8.648;2023-08-30T07:48:56;99701.19;;;17.05;80.52
72262;BME280;60173;52.112;8.648;2023-08-30T07:51:22;99702.50;;;17.11;81.19
72262;BME280;60173;52.112;8.648;2023-08-30T07:53:49;99703.72;;;17.13;80.66
72262;BME280;60173;52.112;8.648;2023-08-30T07:56:15;99701.97;;;17.44;80.00
72262;BME280;60173;52.112;8.648;2023-08-30T07:58:42;99705.13;;;17.66;79.07
72262;BME280;60173;52.112;8.648;2023-08-30T08:01:08;99703.25;;;17.70;78.77
72262;BME280;60173;52.112;8.648;2023-08-30T08:03:34;99700.66;;;17.77;78.26
72262;BME280;60173;52.112;8.648;2023-08-30T08:06:01;99693.53;;;17.95;77.87
72262;BME280;60173;52.112;8.648;2023-08-30T08:08:27;99699.03;;;17.95;77.69
72262;BME280;60173;52.112;8.648;2023-08-30T08:10:54;99697.25;;;18.06;77.18
72262;BME280;60173;52.112;8.648;2023-08-30T08:13:20;99695.59;;;18.25;77.12
72262;BME280;60173;52.112;8.648;2023-08-30T08:15:47;99698.72;;;18.23;77.06
72262;BME280;60173;52.112;8.648;2023-08-30T08:18:13;99692.31;;;18.16;74.73
72262;BME280;60173;52.112;8.648;2023-08-30T08:20:39;99694.69;;;18.17;77.01
72262;BME280;60173;52.112;8.648;2023-08-30T08:23:06;99696.47;;;18.56;75.38
72262;BME280;60173;52.112;8.648;2023-08-30T08:25:33;99699.44;;;18.43;74.80
72262;BME280;60173;52.112;8.648;2023-08-30T08:27:59;99694.16;;;18.58;74.52
72262;BME280;60173;52.112;8.648;2023-08-30T08:30:26;99688.00;;;18.68;74.55
72262;BME280;60173;52.112;8.648;2023-08-30T08:32:52;99686.63;;;18.55;74.40
72262;BME280;60173;52.112;8.648;2023-08-30T08:35:19;99688.66;;;18.58;75.24
72262;BME280;60173;52.112;8.648;2023-08-30T08:37:45;99683.81;;;18.51;73.83
72262;BME280;60173;52.112;8.648;2023-08-30T08:40:12;99686.72;;;18.62;74.72
72262;BME280;60173;52.112;8.648;2023-08-30T08:42:39;99682.72;;;18.82;74.60
72262;BME280;60173;52.112;8.648;2023-08-30T08:45:06;99689.66;;;18.46;73.63
72262;BME280;60173;52.112;8.648;2023-08-30T08:47:34;99682.28;;;18.53;73.44
72262;BME280;60173;52.112;8.648;2023-08-30T08:50:01;99683.81;;;18.51;73.60
72262;BME280;60173;52.112;8.648;2023-08-30T08:52:28;99685.06;;;18.57;72.15
72262;BME280;60173;52.112;8.648;2023-08-30T08:55:01;99687.44;;;18.55;73.22
72262;BME280;60173;52.112;8.648;2023-08-30T08:57:28;99682.28;;;18.53;72.49
72262;BME280;60173;52.112;8.648;2023-08-30T08:59:56;99679.53;;;18.53;71.90
72262;BME280;60173;52.112;8.648;2023-08-30T09:02:23;99678.91;;;18.64;71.58
72262;BME280;60173;52.112;8.648;2023-08-30T09:04:50;99682.25;;;18.77;71.67
72262;BME280;60173;52.112;8.648;2023-08-30T09:07:18;99679.50;;;19.07;71.29
72262;BME280;60173;52.112;8.648;2023-08-30T09:09:44;99676.97;;;18.94;71.03
72262;BME280;60173;52.112;8.648;2023-08-30T09:12:11;99676.94;;;19.21;71.09
72262;BME280;60173;52.112;8.648;2023-08-30T09:14:37;99672.41;;;19.39;69.56
72262;BME280;60173;52.112;8.648;2023-08-30T09:17:03;99674.41;;;19.42;67.86
72262;BME280;60173;52.112;8.648;2023-08-30T09:19:30;99671.22;;;19.37;67.59
72262;BME280;60173;52.112;8.648;2023-08-30T09:21:57;99666.16;;;19.42;67.75
72262;BME280;60173;52.112;8.648;2023-08-30T09:24:25;99667.44;;;19.52;66.38
72262;BME280;60173;52.112;8.648;2023-08-30T09:26:53;99674.44;;;19.46;66.65
72262;BME280;60173;52.112;8.648;2023-08-30T09:29:21;99672.75;;;19.34;65.33
72262;BME280;60173;52.112;8.648;2023-08-30T09:31:51;99671.38;;;19.55;65.13
72262;BME280;60173;52.112;8.648;2023-08-30T09:34:22;99663.41;;;19.42;65.23
72262;BME280;60173;52.112;8.648;2023-08-30T09:36:48;99661.31;;;19.66;64.62
72262;BME280;60173;52.112;8.648;2023-08-30T09:39:15;99658.63;;;19.73;65.11
72262;BME280;60173;52.112;8.648;2023-08-30T09:41:43;99666.31;;;19.98;62.93
72262;BME280;60173;52.112;8.648;2023-08-30T09:44:17;99664.06;;;19.32;62.47
72262;BME280;60173;52.112;8.648;2023-08-30T09:46:51;99652.38;;;19.42;63.64
72262;BME280;60173;52.112;8.648;2023-08-30T09:49:20;99650.00;;;19.78;65.13
72262;BME280;60173;52.112;8.648;2023-08-30T09:51:48;99641.31;;;20.24;63.95
72262;BME280;60173;52.112;8.648;2023-08-30T09:54:18;99643.72;;;20.29;63.59
72262;BME280;60173;52.112;8.648;2023-08-30T09:57:04;99637.19;;;19.97;62.80
72262;BME280;60173;52.112;8.648;2023-08-30T09:59:32;99634.25;;;20.23;63.81
72262;BME280;60173;52.112;8.648;2023-08-30T10:01:59;99640.72;;;20.49;61.78
72262;BME280;60173;52.112;8.648;2023-08-30T10:04:26;99636.88;;;20.61;61.09
72262;BME280;60173;52.112;8.648;2023-08-30T10:06:55;99638.50;;;20.72;60.00
72262;BME280;60173;52.112;8.648;2023-08-30T10:09:24;99634.56;;;20.73;58.53
72262;BME280;60173;52.112;8.648;2023-08-30T10:11:51;99637.91;;;21.22;59.36
72262;BME280;60173;52.112;8.648;2023-08-30T10:14:17;99627.19;;;20.99;56.54
72262;BME280;60173;52.112;8.648;2023-08-30T10:16:45;99630.72;;;20.96;55.64
72262;BME280;60173;52.112;8.648;2023-08-30T10:21:44;99618.31;;;22.06;53.64
72262;BME280;60173;52.112;8.648;2023-08-30T10:24:14;99609.56;;;22.58;53.77
72262;BME280;60173;52.112;8.648;2023-08-30T10:26:56;99619.84;;;22.50;53.18
72262;BME280;60173;52.112;8.648;2023-08-30T10:29:24;99614.31;;;22.46;51.01
72262;BME280;60173;52.112;8.648;2023-08-30T10:31:51;99612.78;;;21.95;52.99
72262;BME280;60173;52.112;8.648;2023-08-30T10:34:17;99617.53;;;21.91;54.15
72262;BME280;60173;52.112;8.648;2023-08-30T10:36:44;99605.28;;;21.92;52.99
72262;BME280;60173;52.112;8.648;2023-08-30T10:39:12;99609.63;;;21.72;53.29
72262;BME280;60173;52.112;8.648;2023-08-30T10:41:54;99596.19;;;21.92;53.26
72262;BME280;60173;52.112;8.648;2023-08-30T10:44:22;99600.84;;;21.30;53.94
72262;BME280;60173;52.112;8.648;2023-08-30T10:46:52;99605.09;;;20.99;54.98
72262;BME280;60173;52.112;8.648;2023-08-30T10:49:20;99606.78;;;20.41;57.29
72262;BME280;60173;52.112;8.648;2023-08-30T10:51:55;99605.00;;;20.12;59.19
72262;BME280;60173;52.112;8.648;2023-08-30T10:54:21;99594.81;;;19.27;57.64
72262;BME280;60173;52.112;8.648;2023-08-30T10:56:54;99598.38;;;18.93;59.32
72262;BME280;60173;52.112;8.648;2023-08-30T10:59:22;99602.88;;;18.75;61.37
72262;BME280;60173;52.112;8.648;2023-08-30T11:01:49;99596.47;;;18.71;60.25
72262;BME280;60173;52.112;8.648;2023-08-30T11:04:16;99580.19;;;18.85;59.56
72262;BME280;60173;52.112;8.648;2023-08-30T11:06:47;99586.28;;;19.02;61.00
72262;BME280;60173;52.112;8.648;2023-08-30T11:09:23;99581.09;;;18.96;60.79
72262;BME280;60173;52.112;8.648;2023-08-30T11:11:51;99578.63;;;19.22;61.74
72262;BME280;60173;52.112;8.648;2023-08-30T11:14:18;99574.56;;;19.49;60.63
72262;BME280;60173;52.112;8.648;2023-08-30T11:16:45;99585.16;;;19.88;60.03
72262;BME280;60173;52.112;8.648;2023-08-30T11:19:11;99575.03;;;20.06;58.13
72262;BME280;60173;52.112;8.648;2023-08-30T11:21:40;99568.75;;;20.09;58.36
72262;BME280;60173;52.112;8.648;2023-08-30T11:24:08;99569.53;;;20.03;59.15
72262;BME280;60173;52.112;8.648;2023-08-30T11:26:34;99574.56;;;19.94;60.00
72262;BME280;60173;52.112;8.648;2023-08-30T11:29:05;99565.22;;;20.05;58.65
72262;BME280;60173;52.112;8.648;2023-08-30T11:31:32;99567.28;;;20.19;57.96
72262;BME280;60173;52.112;8.648;2023-08-30T11:33:59;99565.69;;;20.22;58.25
72262;BME280;60173;52.112;8.648;2023-08-30T11:36:29;99561.28;;;20.10;58.73
72262;BME280;60173;52.112;8.648;2023-08-30T11:38:56;99556.88;;;19.98;59.85
72262;BME280;60173;52.112;8.648;2023-08-30T11:41:26;99559.03;;;19.71;59.75
72262;BME280;60173;52.112;8.648;2023-08-30T11:43:53;99553.38;;;19.57;60.04
72262;BME280;60173;52.112;8.648;2023-08-30T11:46:20;99549.44;;;19.58;60.30
72262;BME280;60173;52.112;8.648;2023-08-30T11:48:48;99547.00;;;19.46;59.89
72262;BME280;60173;52.112;8.648;2023-08-30T11:51:17;99538.66;;;19.79;59.98
72262;BME280;60173;52.112;8.648;2023-08-30T11:53:45;99531.88;;;20.32;59.95
72262;BME280;60173;52.112;8.648;2023-08-30T11:56:12;99528.16;;;20.80;57.53
72262;BME280;60173;52.112;8.648;2023-08-30T11:58:38;99525.53;;;21.37;55.21
72262;BME280;60173;52.112;8.648;2023-08-30T12:01:05;99517.19;;;22.01;53.37
72262;BME280;60173;52.112;8.648;2023-08-30T12:03:33;99519.06;;;22.47;52.43
72262;BME280;60173;52.112;8.648;2023-08-30T12:06:00;99516.22;;;22.69;51.24
72262;BME280;60173;52.112;8.648;2023-08-30T12:08:28;99514.13;;;22.87;51.04
72262;BME280;60173;52.112;8.648;2023-08-30T12:10:55;99516.56;;;22.71;51.92
72262;BME280;60173;52.112;8.648;2023-08-30T12:13:29;99501.78;;;22.22;52.45
72262;BME280;60173;52.112;8.648;2023-08-30T12:15:57;99514.06;;;21.78;53.09
72262;BME280;60173;52.112;8.648;2023-08-30T12:18:25;99500.66;;;21.76;54.17
72262;BME280;60173;52.112;8.648;2023-08-30T12:20:55;99500.63;;;21.94;54.43
72262;BME280;60173;52.112;8.648;2023-08-30T12:23:23;99503.78;;;21.96;53.82
72262;BME280;60173;52.112;8.648;2023-08-30T12:26:06;99495.06;;;22.01;52.40
72262;BME280;60173;52.112;8.648;2023-08-30T12:28:42;99493.56;;;21.43;52.36
72262;BME280;60173;52.112;8.648;2023-08-30T12:31:09;99496.34;;;21.43;53.53
72262;BME280;60173;52.112;8.648;2023-08-30T12:33:37;99498.25;;;21.17;53.91
72262;BME280;60173;52.112;8.648;2023-08-30T12:36:03;99504.22;;;21.27;54.87
72262;BME280;60173;52.112;8.648;2023-08-30T12:38:30;99498.25;;;21.10;53.22
72262;BME280;60173;52.112;8.648;2023-08-30T12:40:57;99506.53;;;21.17;53.89
72262;BME280;60173;52.112;8.648;2023-08-30T12:43:23;99504.19;;;21.19;53.48
72262;BME280;60173;52.112;8.648;2023-08-30T12:45:50;99507.28;;;20.82;54.72
72262;BME280;60173;52.112;8.648;2023-08-30T12:48:18;99501.03;;;21.03;54.91
72262;BME280;60173;52.112;8.648;2023-08-30T12:50:48;99506.53;;;21.03;55.69
72262;BME280;60173;52.112;8.648;2023-08-30T12:53:14;99503.25;;;20.58;55.54
72262;BME280;60173;52.112;8.648;2023-08-30T12:55:41;99505.84;;;20.22;55.76
72262;BME280;60173;52.112;8.648;2023-08-30T12:58:08;99514.31;;;19.92;56.97
72262;BME280;60173;52.112;8.648;2023-08-30T13:00:35;99519.53;;;19.53;59.61
72262;BME280;60173;52.112;8.648;2023-08-30T13:03:01;99520.13;;;19.32;59.71
72262;BME280;60173;52.112;8.648;2023-08-30T13:05:28;99520.09;;;19.28;61.22
72262;BME280;60173;52.112;8.648;2023-08-30T13:07:54;99524.06;;;18.90;60.27
72262;BME280;60173;52.112;8.648;2023-08-30T13:10:21;99524.75;;;18.53;61.62
72262;BME280;60173;52.112;8.648;2023-08-30T13:12:47;99533.66;;;18.73;61.94